Meteo Giornale » Osservazioni meteo Francia » Annecy-Meythet

ore: 10:30 - Osservazioni Meteo Annecy-Meythet
Lat. 45° 55' N Lon. 6° 5' E Alt. 463 metri s.l.m.

poco_nuvoloso Europe/Paris

18 °C

Poco Nuvoloso

Temp. 24 Ore

11 °C

24 °C

Nord

5.5 Km/h

Dew point 13 °C

Umidità 72 %

Visibilità  10 Km

Il sole sorge alle ore 05:42

Il sole tramonta alle ore 21:30

Data e Ora Cielo e Fenomeni T °C DP °C Um. % Pres. hPa Vis. km Vento km/h
Oggi h: 10:30 poco_nuvoloso Poco Nuvoloso 18 13 72 1022 10 N 5.5
Oggi h: 10:00 nuvoloso Nuvoloso 17 13 77 1022 10 N 3.7
Oggi h: 09:30 poco_nuvoloso Poco Nuvoloso 17 12 72 1022 10 N 1.8
Oggi h: 09:00 sereno Sereno 16 12 77 1022 10 N 3.7
Oggi h: 08:30 poco_nuvoloso Poco Nuvoloso 15 11 76 1022 10 N 3.7
Oggi h: 08:00 coperto Coperto 14 12 87 1022 10 N 3.7
Oggi h: 07:30 molto_nuvoloso Molto Nuvoloso 13 12 93 1022 10 N 0
Oggi h: 07:00 coperto Coperto 12 11 93 1022 10 N 3.7
Oggi h: 06:30 coperto Coperto 12 11 93 1022 10 N 5.5
Oggi h: 06:00 coperto Coperto 12 11 93 1022 10 N 3.7
Oggi h: 05:30 coperto Coperto 12 11 93 1022 10 N 3.7
Oggi h: 05:00 coperto Coperto 12 11 93 1022 10 E/NE 9.3
Oggi h: 04:30 coperto Coperto 12 12 100 1022 10 N 3.7
Oggi h: 04:00 coperto Coperto 12 12 100 1022 10 E/NE 7.4
Oggi h: 03:30 nuvoloso Nuvoloso 11 11 100 1022 10 N 5.5
Oggi h: 03:00 nuvoloso Nuvoloso 11 11 100 1022 10 N/NE 7.4
Oggi h: 02:30 molto_nuvoloso Molto Nuvoloso 11 10 93 1022 10 N 5.5
Oggi h: 02:00 poco_nuvoloso Poco Nuvoloso 11 10 93 1022 10 N 5.5
Oggi h: 01:30 sereno Sereno 11 10 93 1022 10 N 5.5
Oggi h: 01:00 sereno Sereno 11 10 93 1022 10 N 3.7
Oggi h: 00:30 sereno Sereno 11 10 93 1022 10 N 3.7
Oggi h: 00:00 sereno Sereno 12 11 93 1021 7 N 1.8
Ieri h: 23:30 foschia Foschia 12 11 93 1021 5 N 5.5
Ieri h: 23:00 poco_nuvoloso Poco Nuvoloso 13 12 93 1021 8 N 5.5
Ieri h: 22:30 poco_nuvoloso Poco Nuvoloso 13 12 93 1021 10 N 5.5
Ieri h: 22:00 molto_nuvoloso Molto Nuvoloso 14 12 87 1021 10 N 3.7
Ieri h: 21:30 coperto Coperto 15 13 87 1020 10 N 5.5
Ieri h: 21:00 molto_nuvoloso Molto Nuvoloso 15 13 87 1020 10 O/SO 7.4
Ieri h: 20:30 sereno Sereno 16 13 82 1020 10 O/SO 7.4
Ieri h: 20:00 sereno Sereno 16 14 87 1020 10 S 7.4
Ieri h: 19:30 sereno Sereno 16 13 82 1020 10 E/SE 11.1
Ieri h: 19:00 coperto_pioggia Pioggia Debole 15 12 82 1020 10 N 5.5
Ieri h: 18:30 coperto_pioggia Pioggia Debole 14 13 93 1020 10 E 9.3
Ieri h: 18:00 coperto_pioggia Pioggia Debole Foschia 14 12 87 1021 5 S 11.1
Ieri h: 17:30 coperto_pioggia Pioggia Debole 15 12 82 1021 10 O 9.3
Ieri h: 17:00 nuvoloso_temporali Temporale con Pioggia Debole 15 13 87 1019 10 O/SO 18.5
Ieri h: 16:30 nuvoloso_temporali Temporale con Pioggia Foschia 15 13 87 1017 3 O 40.7
Ieri h: 16:00 nuvoloso_temporali Temporale nelle Vicinanze 21 15 68 1015 10 O 11.1
Ieri h: 15:30 molto_nuvoloso Molto Nuvoloso 22 14 60 1015 10 N/NO 9.3
Ieri h: 15:00 poco_nuvoloso Poco Nuvoloso 24 15 57 1015 10 N/NO 7.4
Ieri h: 14:30 poco_nuvoloso Poco Nuvoloso 23 16 64 1015 10 O/NO 13
Ieri h: 14:00 poco_nuvoloso Poco Nuvoloso 23 16 64 1016 10 N 5.5
Ieri h: 13:30 nuvoloso Nuvoloso 22 15 64 1016 10 N 5.5
Ieri h: 13:00 sereno Sereno 22 17 73 1017 10 N 3.7
Ieri h: 12:30 poco_nuvoloso Poco Nuvoloso 20 16 77 1017 10 N 5.5
Ieri h: 12:00 nuvoloso Nuvoloso 20 15 72 1017 10 S/SO 9.3